createdAt,value
2019-03-22T00:01:41.222Z,13.11
2019-03-22T00:04:10.401Z,13.18
2019-03-22T00:06:39.790Z,13.11
2019-03-22T00:09:09.018Z,13.06
2019-03-22T00:11:38.170Z,13.17
2019-03-22T00:14:07.359Z,13.16
2019-03-22T00:16:36.481Z,13.35
2019-03-22T00:19:05.614Z,13.03
2019-03-22T00:21:35.318Z,12.71
2019-03-22T00:24:04.454Z,12.62
2019-03-22T00:26:33.836Z,12.92
2019-03-22T00:29:03.041Z,12.97
2019-03-22T00:31:32.428Z,13.06
2019-03-22T00:34:01.576Z,12.85
2019-03-22T00:36:30.765Z,12.95
2019-03-22T00:38:59.938Z,13.18
2019-03-22T00:41:29.064Z,12.99
2019-03-22T00:43:58.212Z,13.12
2019-03-22T00:46:27.348Z,13.17
2019-03-22T00:48:56.478Z,13.40
2019-03-22T00:51:26.321Z,13.30
2019-03-22T00:53:55.441Z,12.96
2019-03-22T00:56:25.285Z,12.78
2019-03-22T00:58:54.673Z,12.78
2019-03-22T01:01:24.298Z,12.66
2019-03-22T01:03:53.433Z,12.32
2019-03-22T01:06:22.561Z,12.87
2019-03-22T01:08:51.705Z,12.57
2019-03-22T01:11:21.066Z,12.82
2019-03-22T01:13:50.224Z,13.06
2019-03-22T01:16:20.036Z,12.82
2019-03-22T01:18:49.410Z,12.67
2019-03-22T01:21:18.588Z,12.83
2019-03-22T01:23:48.450Z,13.05
2019-03-22T01:26:17.841Z,12.92
2019-03-22T01:28:46.953Z,12.91
2019-03-22T01:31:16.108Z,13.01
2019-03-22T01:33:45.247Z,12.76
2019-03-22T01:36:15.574Z,12.95
2019-03-22T01:38:44.972Z,12.97
2019-03-22T01:41:14.359Z,12.92
2019-03-22T01:43:43.758Z,12.88
2019-03-22T01:46:12.891Z,12.80
2019-03-22T01:48:42.980Z,13.05
2019-03-22T01:51:12.586Z,12.44
2019-03-22T01:53:41.716Z,12.79
2019-03-22T01:56:10.919Z,12.73
2019-03-22T01:58:40.054Z,13.02
2019-03-22T02:01:09.258Z,13.01
2019-03-22T02:03:38.407Z,13.13
2019-03-22T02:06:07.597Z,12.78
2019-03-22T02:08:36.953Z,12.83
2019-03-22T02:11:06.221Z,12.65
2019-03-22T02:13:35.455Z,12.78
2019-03-22T02:16:05.177Z,12.92
2019-03-22T02:18:34.313Z,12.95
2019-03-22T02:21:03.484Z,12.95
2019-03-22T02:23:32.856Z,13.41
2019-03-22T02:26:01.977Z,12.97
2019-03-22T02:28:31.121Z,12.82
2019-03-22T02:31:00.276Z,13.42
2019-03-22T02:33:30.140Z,13.17
2019-03-22T02:35:59.281Z,13.21
2019-03-22T02:38:28.645Z,12.77
2019-03-22T02:40:57.990Z,12.61
2019-03-22T02:43:27.371Z,12.61
2019-03-22T02:45:56.506Z,12.87
2019-03-22T02:48:25.639Z,12.77
2019-03-22T02:50:56.262Z,13.30
2019-03-22T02:53:25.718Z,13.25
2019-03-22T02:55:55.223Z,13.18
2019-03-22T02:58:24.441Z,13.38
2019-03-22T03:00:53.787Z,13.59
2019-03-22T03:03:22.924Z,13.43
2019-03-22T03:05:52.050Z,13.45
2019-03-22T03:08:21.659Z,13.55
2019-03-22T03:10:51.023Z,13.50
2019-03-22T03:13:20.385Z,13.20
2019-03-22T03:15:49.584Z,13.46
2019-03-22T03:18:18.698Z,13.48
2019-03-22T03:20:48.064Z,13.33
2019-03-22T03:23:17.500Z,13.41
2019-03-22T03:25:46.903Z,13.55
2019-03-22T03:28:16.049Z,13.54
2019-03-22T03:30:45.567Z,13.38
2019-03-22T03:33:15.500Z,13.02
2019-03-22T03:35:44.849Z,13.01
2019-03-22T03:38:14.036Z,13.44
2019-03-22T03:40:43.403Z,13.36
2019-03-22T03:43:12.559Z,13.03
2019-03-22T03:45:41.713Z,13.81
2019-03-22T03:48:10.933Z,14.41
2019-03-22T03:50:40.468Z,14.38
2019-03-22T03:53:10.034Z,14.55
2019-03-22T03:55:39.454Z,14.38
2019-03-22T03:58:08.594Z,14.21
2019-03-22T04:00:37.708Z,14.39
2019-03-22T04:03:07.165Z,13.89
2019-03-22T04:05:36.311Z,13.80
2019-03-22T04:08:05.722Z,14.05
2019-03-22T04:10:35.286Z,13.80
2019-03-22T04:13:04.439Z,13.53
2019-03-22T04:15:33.829Z,13.68
2019-03-22T04:18:02.938Z,13.99
2019-03-22T04:20:32.092Z,14.06
2019-03-22T04:23:01.457Z,14.21
2019-03-22T04:25:30.664Z,14.07
2019-03-22T04:27:59.809Z,13.92
2019-03-22T04:30:29.080Z,13.94
2019-03-22T04:32:58.459Z,13.76
2019-03-22T04:35:27.809Z,13.81
2019-03-22T04:37:57.435Z,13.65
2019-03-22T04:40:27.575Z,13.75
2019-03-22T04:42:57.100Z,13.80
2019-03-22T04:45:27.252Z,13.74
2019-03-22T04:48:00.949Z,13.84
2019-03-22T04:50:30.534Z,13.71
2019-03-22T04:53:00.400Z,13.99
2019-03-22T04:55:29.933Z,14.10
2019-03-22T04:57:59.867Z,13.72
2019-03-22T05:00:29.091Z,13.60
2019-03-22T05:02:59.204Z,13.82
2019-03-22T05:05:28.395Z,13.90
2019-03-22T05:07:57.887Z,14.02
2019-03-22T05:10:27.206Z,14.12
2019-03-22T05:12:57.613Z,14.29
2019-03-22T05:15:27.736Z,13.91
2019-03-22T05:17:56.933Z,13.72
2019-03-22T05:20:26.129Z,13.71
2019-03-22T05:22:56.864Z,13.66
2019-03-22T05:25:26.445Z,12.88
2019-03-22T05:27:57.041Z,13.59
2019-03-22T05:31:10.694Z,13.50
2019-03-22T05:33:40.059Z,13.54
2019-03-22T05:36:09.421Z,13.67
2019-03-22T05:38:38.988Z,13.78
2019-03-22T05:41:08.101Z,13.61
2019-03-22T05:43:37.484Z,13.63
2019-03-22T05:46:06.886Z,13.91
2019-03-22T05:48:36.389Z,13.84
2019-03-22T05:51:05.712Z,14.10
2019-03-22T05:53:35.281Z,13.90
2019-03-22T05:56:05.574Z,14.37
2019-03-22T05:58:34.940Z,14.22
2019-03-22T06:01:04.540Z,14.06
2019-03-22T06:03:33.664Z,13.51
2019-03-22T06:06:02.786Z,13.12
2019-03-22T06:08:31.924Z,13.83
2019-03-22T06:11:01.100Z,13.71
2019-03-22T06:13:30.232Z,14.65
2019-03-22T06:15:59.422Z,14.41
2019-03-22T06:18:29.265Z,14.30
2019-03-22T06:20:58.624Z,14.21
2019-03-22T06:23:27.977Z,14.42
2019-03-22T06:25:57.135Z,14.95
2019-03-22T06:28:26.319Z,15.14
2019-03-22T06:30:55.461Z,14.89
2019-03-22T06:33:24.578Z,15.36
2019-03-22T06:35:53.819Z,15.57
2019-03-22T06:38:22.967Z,14.49
2019-03-22T06:40:52.092Z,15.58
2019-03-22T06:43:21.218Z,16.64
2019-03-22T06:45:50.370Z,17.12
2019-03-22T06:48:19.482Z,18.03
2019-03-22T06:50:48.662Z,19.70
2019-03-22T06:53:18.072Z,21.92
2019-03-22T06:55:47.218Z,22.37
2019-03-22T06:58:16.374Z,22.17
2019-03-22T07:00:45.642Z,21.45
2019-03-22T07:03:15.539Z,22.63
2019-03-22T07:05:44.650Z,22.69
2019-03-22T07:08:13.812Z,24.12
2019-03-22T07:10:43.177Z,24.13
2019-03-22T07:13:12.340Z,23.90
2019-03-22T07:15:41.507Z,24.27
2019-03-22T07:18:10.662Z,22.61
2019-03-22T07:20:39.815Z,22.55
2019-03-22T07:23:08.943Z,23.39
2019-03-22T07:25:38.085Z,24.91
2019-03-22T07:28:07.184Z,25.18
2019-03-22T07:30:36.325Z,26.96
2019-03-22T07:33:05.439Z,26.17
2019-03-22T07:35:34.808Z,27.78
2019-03-22T07:38:04.261Z,28.38
2019-03-22T07:40:33.390Z,28.13
2019-03-22T07:43:02.795Z,27.84
2019-03-22T07:45:32.171Z,28.35
2019-03-22T07:48:01.567Z,28.84
2019-03-22T07:50:31.184Z,28.73
2019-03-22T07:53:00.418Z,29.04
2019-03-22T07:55:29.800Z,28.17
2019-03-22T07:57:59.117Z,28.25
2019-03-22T08:00:31.093Z,29.37
2019-03-22T08:02:59.222Z,29.13
2019-03-22T08:05:28.598Z,29.71
2019-03-22T08:07:57.728Z,30.65
2019-03-22T08:10:27.103Z,30.67
2019-03-22T08:12:56.372Z,31.74
2019-03-22T08:15:31.626Z,31.31
2019-03-22T08:18:01.325Z,29.50
2019-03-22T08:20:30.570Z,31.76
2019-03-22T08:22:59.850Z,32.17
2019-03-22T08:25:29.015Z,30.17
2019-03-22T08:27:58.356Z,31.53
2019-03-22T08:30:28.165Z,32.81
2019-03-22T08:32:57.320Z,34.93
2019-03-22T08:35:26.425Z,36.07
2019-03-22T08:37:55.539Z,36.14
2019-03-22T08:40:24.674Z,34.51
2019-03-22T08:42:53.771Z,35.65
2019-03-22T08:45:22.962Z,34.90
2019-03-22T08:47:52.358Z,33.92
2019-03-22T08:50:21.502Z,35.75
2019-03-22T08:52:50.631Z,34.53
2019-03-22T08:55:20.029Z,33.79
2019-03-22T08:57:49.204Z,33.78
2019-03-22T09:00:18.354Z,34.60
2019-03-22T09:02:49.696Z,33.55
2019-03-22T09:05:18.491Z,31.39
2019-03-22T09:07:47.627Z,31.40
2019-03-22T09:10:17.282Z,30.58
2019-03-22T09:12:46.407Z,31.14
2019-03-22T09:15:15.724Z,30.02
2019-03-22T09:17:44.846Z,29.97
2019-03-22T09:23:40.473Z,32.77
2019-03-22T09:26:10.052Z,33.12
2019-03-22T09:28:39.837Z,31.07
2019-03-22T09:31:10.449Z,32.43
2019-03-22T09:37:09.271Z,33.80
2019-03-22T09:39:38.555Z,32.20
2019-03-22T09:42:08.132Z,32.92
2019-03-22T09:44:43.110Z,33.08
2019-03-22T09:47:08.195Z,33.74
2019-03-22T09:49:37.395Z,34.41
2019-03-22T09:52:06.881Z,34.83
2019-03-22T09:54:35.997Z,35.08
2019-03-22T09:57:05.524Z,34.28
2019-03-22T09:59:34.661Z,35.64
2019-03-22T10:02:03.803Z,35.42
2019-03-22T10:04:32.930Z,34.75
2019-03-22T10:07:02.310Z,35.66
2019-03-22T10:09:31.452Z,35.71
2019-03-22T10:12:00.567Z,33.25
2019-03-22T10:14:31.379Z,35.30
2019-03-22T10:17:00.975Z,34.30
2019-03-22T10:19:30.519Z,34.47
2019-03-22T10:22:00.222Z,36.25
2019-03-22T10:24:29.841Z,34.41
2019-03-22T10:26:59.110Z,34.73
2019-03-22T10:29:28.838Z,36.19
2019-03-22T10:31:58.033Z,35.77
2019-03-22T10:34:27.163Z,35.47
2019-03-22T10:36:56.534Z,34.31
2019-03-22T10:39:25.779Z,33.50
2019-03-22T10:41:55.003Z,33.53
2019-03-22T10:44:24.642Z,32.18
2019-03-22T10:46:53.828Z,32.80
2019-03-22T10:49:22.961Z,33.49
2019-03-22T10:51:57.546Z,34.96
2019-03-22T10:54:23.016Z,32.40
2019-03-22T10:56:52.414Z,34.12
2019-03-22T10:59:21.800Z,34.62
2019-03-22T11:02:03.312Z,33.61
2019-03-22T11:04:27.852Z,33.89
2019-03-22T11:06:57.013Z,35.34
2019-03-22T11:09:26.185Z,34.32
2019-03-22T11:11:55.314Z,33.73
2019-03-22T11:14:24.695Z,31.79
2019-03-22T11:16:54.110Z,32.68
2019-03-22T11:19:23.348Z,31.14
2019-03-22T11:21:52.494Z,31.70
2019-03-22T11:24:21.674Z,31.39
2019-03-22T11:26:51.045Z,33.16
2019-03-22T11:29:21.186Z,31.69
2019-03-22T11:31:50.577Z,31.33
2019-03-22T11:34:19.947Z,31.65
2019-03-22T11:36:59.475Z,32.78
2019-03-22T11:39:28.643Z,31.02
2019-03-22T11:41:57.800Z,30.79
2019-03-22T11:44:26.951Z,32.92
2019-03-22T11:46:56.124Z,33.08
2019-03-22T11:49:25.645Z,32.78
2019-03-22T11:51:54.909Z,34.16
2019-03-22T11:54:24.063Z,34.18
2019-03-22T11:56:53.754Z,33.66
2019-03-22T11:59:22.899Z,32.94
2019-03-22T12:01:52.110Z,34.57
2019-03-22T12:04:21.253Z,34.98
2019-03-22T12:06:50.740Z,34.36
2019-03-22T12:09:19.864Z,34.25
2019-03-22T12:11:49.023Z,31.71
2019-03-22T12:14:18.194Z,31.89
2019-03-22T12:16:47.341Z,32.30
2019-03-22T12:19:16.793Z,32.24
2019-03-22T12:21:46.408Z,34.54
2019-03-22T12:24:15.832Z,34.17
2019-03-22T12:26:44.995Z,31.56
2019-03-22T12:29:14.380Z,32.75
2019-03-22T12:31:43.805Z,32.66
2019-03-22T12:34:12.998Z,34.09
2019-03-22T12:36:42.987Z,33.17
2019-03-22T12:39:12.273Z,31.51
2019-03-22T12:41:41.460Z,31.21
2019-03-22T12:44:10.633Z,30.59
2019-03-22T12:46:40.470Z,29.08
2019-03-22T12:49:09.866Z,29.34
2019-03-22T12:51:39.017Z,29.24
2019-03-22T12:54:08.439Z,27.26
2019-03-22T12:56:37.628Z,28.74
2019-03-22T12:59:06.768Z,28.43
2019-03-22T13:01:37.242Z,28.40
2019-03-22T13:04:06.525Z,27.34
2019-03-22T13:06:35.675Z,27.66
2019-03-22T13:09:09.398Z,27.44
2019-03-22T13:11:52.545Z,26.98
2019-03-22T13:14:56.918Z,27.66
2019-03-22T13:17:28.977Z,27.02
2019-03-22T13:19:58.610Z,25.62
2019-03-22T13:22:31.205Z,26.83
2019-03-22T13:25:03.866Z,25.62
2019-03-22T13:27:34.066Z,25.83
2019-03-22T13:30:19.356Z,26.47
2019-03-22T13:32:53.295Z,27.04
2019-03-22T13:35:22.838Z,26.94
2019-03-22T13:37:52.449Z,27.39
2019-03-22T13:40:22.566Z,26.72
2019-03-22T13:42:53.920Z,27.43
2019-03-22T13:45:29.684Z,27.44
2019-03-22T13:47:59.200Z,26.86
2019-03-22T13:50:34.458Z,26.67
2019-03-22T13:53:03.977Z,25.77
2019-03-22T13:55:35.807Z,27.02
2019-03-22T13:58:16.216Z,26.14
2019-03-22T14:00:46.182Z,26.10
2019-03-22T14:03:18.566Z,25.69
2019-03-22T14:05:47.720Z,25.98
2019-03-22T14:08:19.699Z,26.63
2019-03-22T14:10:49.658Z,25.53
2019-03-22T14:13:19.651Z,25.04
2019-03-22T14:16:05.570Z,24.67
2019-03-22T14:18:37.103Z,26.84
2019-03-22T14:21:06.879Z,25.66
2019-03-22T14:23:36.417Z,26.47
2019-03-22T14:26:06.617Z,26.13
2019-03-22T14:28:35.835Z,26.29
2019-03-22T14:31:05.120Z,25.52
2019-03-22T14:33:35.320Z,26.20
2019-03-22T14:36:05.023Z,25.65
2019-03-22T14:38:36.047Z,25.79
2019-03-22T14:41:12.097Z,25.74
2019-03-22T14:43:44.534Z,25.88
2019-03-22T14:46:14.125Z,26.08
2019-03-22T14:48:49.514Z,25.41
2019-03-22T14:51:19.484Z,26.08
2019-03-22T14:53:48.641Z,23.85
2019-03-22T14:56:18.886Z,25.68
2019-03-22T14:58:48.278Z,26.09
2019-03-22T15:01:19.614Z,25.64
2019-03-22T15:03:51.369Z,26.00
2019-03-22T15:06:21.677Z,25.95
2019-03-22T15:08:51.717Z,25.09
2019-03-22T15:11:23.831Z,24.83
2019-03-22T15:14:19.483Z,24.84
2019-03-22T15:17:06.652Z,26.49
2019-03-22T15:19:58.843Z,25.19
2019-03-22T15:22:53.229Z,26.49
2019-03-22T15:25:47.716Z,25.39
2019-03-22T15:29:22.705Z,26.05
2019-03-22T15:32:09.683Z,25.95
2019-03-22T15:34:48.810Z,25.66
2019-03-22T15:37:30.269Z,25.71
2019-03-22T15:40:02.529Z,26.03
2019-03-22T15:42:32.142Z,25.45
2019-03-22T15:45:01.513Z,25.22
2019-03-22T15:47:31.428Z,25.88
2019-03-22T15:50:00.612Z,25.43
2019-03-22T15:52:30.071Z,25.87
2019-03-22T15:55:00.502Z,24.78
2019-03-22T15:57:29.651Z,25.52
2019-03-22T15:59:59.079Z,25.13
2019-03-22T16:02:28.728Z,25.84
2019-03-22T16:04:57.879Z,25.40
2019-03-22T16:07:27.357Z,26.17
2019-03-22T16:09:56.742Z,24.44
2019-03-22T16:12:25.992Z,24.86
2019-03-22T16:14:55.162Z,24.60
2019-03-22T16:17:24.316Z,25.02
2019-03-22T16:19:53.560Z,25.07
2019-03-22T16:22:22.834Z,24.79
2019-03-22T16:24:52.374Z,25.20
2019-03-22T16:27:21.735Z,24.66
2019-03-22T16:29:50.934Z,25.11
2019-03-22T16:32:20.100Z,25.09
2019-03-22T16:34:49.257Z,26.01
2019-03-22T16:37:18.419Z,25.57
2019-03-22T16:39:47.614Z,25.65
2019-03-22T16:42:16.789Z,25.43
2019-03-22T16:44:45.981Z,24.19
2019-03-22T16:47:15.229Z,25.64
2019-03-22T16:49:44.801Z,24.04
2019-03-22T16:52:13.970Z,24.49
2019-03-22T16:54:43.126Z,24.03
2019-03-22T16:57:12.597Z,24.27
2019-03-22T16:59:41.990Z,24.80
2019-03-22T17:02:11.395Z,24.33
2019-03-22T17:04:40.554Z,24.23
2019-03-22T17:07:10.474Z,24.45
2019-03-22T17:09:39.695Z,24.81
2019-03-22T17:12:09.212Z,25.18
2019-03-22T17:14:38.375Z,25.05
2019-03-22T17:17:07.537Z,25.18
2019-03-22T17:19:36.780Z,24.64
2019-03-22T17:22:06.078Z,24.35
2019-03-22T17:24:35.480Z,24.12
2019-03-22T17:27:04.729Z,24.05
2019-03-22T17:29:33.995Z,23.71
2019-03-22T17:32:03.227Z,23.41
2019-03-22T17:34:32.437Z,23.49
2019-03-22T17:37:01.697Z,22.99
2019-03-22T17:39:30.846Z,22.66
2019-03-22T17:42:00.042Z,22.50
2019-03-22T17:44:29.764Z,22.40
2019-03-22T17:46:58.935Z,22.48
2019-03-22T17:49:28.076Z,22.40
2019-03-22T17:51:57.274Z,22.13
2019-03-22T17:54:27.413Z,21.84
2019-03-22T17:56:56.545Z,21.73
2019-03-22T17:59:26.559Z,21.45
2019-03-22T18:01:55.804Z,21.73
2019-03-22T18:04:25.009Z,21.73
2019-03-22T18:06:54.200Z,21.56
2019-03-22T18:09:23.742Z,21.65
2019-03-22T18:11:53.129Z,21.38
2019-03-22T18:14:22.394Z,20.98
2019-03-22T18:16:51.560Z,21.19
2019-03-22T18:19:21.663Z,20.64
2019-03-22T18:21:51.690Z,21.27
2019-03-22T18:24:21.487Z,20.82
2019-03-22T18:26:50.708Z,20.65
2019-03-22T18:29:20.129Z,20.25
2019-03-22T18:31:49.423Z,19.97
2019-03-22T18:34:18.587Z,20.30
2019-03-22T18:36:47.739Z,20.38
2019-03-22T18:39:17.251Z,20.26
2019-03-22T18:41:46.670Z,20.38
2019-03-22T18:44:16.712Z,20.00
2019-03-22T18:46:46.114Z,19.85
2019-03-22T18:49:15.542Z,19.49
2019-03-22T18:51:44.964Z,19.74
2019-03-22T18:54:14.171Z,19.71
2019-03-22T18:56:44.164Z,19.67
2019-03-22T18:59:13.294Z,19.10
2019-03-22T19:01:43.533Z,19.31
2019-03-22T19:04:12.656Z,19.28
2019-03-22T19:06:42.046Z,19.32
2019-03-22T19:09:11.179Z,19.14
2019-03-22T19:11:40.389Z,19.04
2019-03-22T19:14:10.617Z,19.22
2019-03-22T19:16:39.809Z,19.17
2019-03-22T19:19:09.236Z,18.95
2019-03-22T19:21:38.389Z,18.92
2019-03-22T19:24:07.521Z,18.76
2019-03-22T19:26:36.686Z,18.80
2019-03-22T19:29:05.851Z,18.35
2019-03-22T19:31:40.645Z,18.63
2019-03-22T19:34:10.025Z,18.31
2019-03-22T19:36:39.282Z,18.15
2019-03-22T19:39:08.602Z,18.09
2019-03-22T19:41:37.848Z,18.24
2019-03-22T19:44:07.824Z,18.35
2019-03-22T19:46:36.976Z,18.30
2019-03-22T19:49:06.164Z,18.06
2019-03-22T19:51:35.346Z,18.02
2019-03-22T19:54:05.296Z,17.96
2019-03-22T19:56:34.478Z,17.67
2019-03-22T19:59:03.747Z,17.95
2019-03-22T20:01:33.041Z,17.82
2019-03-22T20:04:02.281Z,17.46
2019-03-22T20:06:31.444Z,17.48
2019-03-22T20:09:01.498Z,17.21
2019-03-22T20:11:30.774Z,17.26
2019-03-22T20:13:59.932Z,17.74
2019-03-22T20:16:29.079Z,17.64
2019-03-22T20:18:59.044Z,17.40
2019-03-22T20:21:28.179Z,16.90
2019-03-22T20:23:57.334Z,17.58
2019-03-22T20:26:26.871Z,17.60
2019-03-22T20:28:56.452Z,17.24
2019-03-22T20:31:25.640Z,17.13
2019-03-22T20:33:54.800Z,16.58
2019-03-22T20:36:24.230Z,16.93
2019-03-22T20:38:53.432Z,17.07
2019-03-22T20:41:23.159Z,16.77
2019-03-22T20:43:53.086Z,16.77
2019-03-22T20:46:22.579Z,17.36
2019-03-22T20:48:52.946Z,17.36
2019-03-22T20:51:22.200Z,17.22
2019-03-22T20:53:51.945Z,17.23
2019-03-22T20:56:21.155Z,16.74
2019-03-22T20:58:50.392Z,16.74
2019-03-22T21:01:19.554Z,17.10
2019-03-22T21:03:48.715Z,16.86
2019-03-22T21:06:18.114Z,16.18
2019-03-22T21:08:47.318Z,16.93
2019-03-22T21:11:17.391Z,16.36
2019-03-22T21:13:47.055Z,17.27
2019-03-22T21:16:16.430Z,17.70
2019-03-22T21:18:46.811Z,18.04
2019-03-22T21:21:16.340Z,16.68
2019-03-22T21:23:45.823Z,17.27
2019-03-22T21:26:15.010Z,17.13
2019-03-22T21:28:44.204Z,17.63
2019-03-22T21:31:13.390Z,18.00
2019-03-22T21:33:42.598Z,17.83
2019-03-22T21:36:11.954Z,18.24
2019-03-22T21:38:41.113Z,18.26
2019-03-22T21:41:10.479Z,18.30
2019-03-22T21:43:39.914Z,18.31
2019-03-22T21:46:09.089Z,18.33
2019-03-22T21:48:38.233Z,18.26
2019-03-22T21:51:07.900Z,18.02
2019-03-22T21:53:37.053Z,18.26
2019-03-22T21:56:06.201Z,18.03
2019-03-22T21:58:35.342Z,17.70
2019-03-22T22:01:04.478Z,17.60
2019-03-22T22:03:33.610Z,17.75
2019-03-22T22:06:03.762Z,17.69
2019-03-22T22:08:33.193Z,17.47
2019-03-22T22:11:02.595Z,17.66
2019-03-22T22:13:31.776Z,17.28
2019-03-22T22:16:00.922Z,17.64
2019-03-22T22:18:30.051Z,17.18
2019-03-22T22:20:59.191Z,17.50
2019-03-22T22:23:29.378Z,17.45
2019-03-22T22:25:58.501Z,17.29
2019-03-22T22:28:27.896Z,17.29
2019-03-22T22:30:57.074Z,17.24
2019-03-22T22:33:26.219Z,17.30
2019-03-22T22:35:58.801Z,17.30
2019-03-22T22:38:26.281Z,17.29
2019-03-22T22:40:55.423Z,16.63
2019-03-22T22:43:24.853Z,17.06
2019-03-22T22:45:54.013Z,17.06
2019-03-22T22:48:23.162Z,16.55
2019-03-22T22:50:52.304Z,16.72
2019-03-22T22:53:21.609Z,16.72
2019-03-22T22:55:50.731Z,16.37
2019-03-22T22:58:20.118Z,16.37
2019-03-22T23:00:49.563Z,16.60
2019-03-22T23:03:18.952Z,16.66
2019-03-22T23:05:48.091Z,16.62
2019-03-22T23:08:17.953Z,16.34
2019-03-22T23:10:47.196Z,16.28
2019-03-22T23:13:16.419Z,15.49
2019-03-22T23:15:45.544Z,16.29
2019-03-22T23:18:14.954Z,16.32
2019-03-22T23:20:44.881Z,16.49
2019-03-22T23:23:14.092Z,15.77
2019-03-22T23:25:44.264Z,16.37
2019-03-22T23:28:13.995Z,16.52
2019-03-22T23:30:43.151Z,16.32
2019-03-22T23:33:12.292Z,16.32
2019-03-22T23:35:42.437Z,16.06
2019-03-22T23:38:11.661Z,16.02
2019-03-22T23:40:40.822Z,16.11
2019-03-22T23:43:09.948Z,15.96
2019-03-22T23:45:39.084Z,16.40
2019-03-22T23:48:08.983Z,15.97
2019-03-22T23:50:38.111Z,16.17
2019-03-22T23:53:07.279Z,15.69
2019-03-22T23:55:36.485Z,15.31
2019-03-22T23:58:06.084Z,15.41
